Time;durP1;ratioP1;P1;durP2;ratioP2;P2;SDS_P1;SDS_P2;PMS_P1;PMS_P2;Temp;Humidity;BMP_temperature;BMP_pressure;BME280_temperature;BME280_humidity;BME280_pressure;Samples;Min_cycle;Max_cycle;Signal;HPM_P1;HPM_P2
2022/10/10 00:00:12;;;;;;;;;44.50;34.00;;;;;-146.59;100.00;59519.28;6128605;23;50978;-47
2022/10/10 00:02:57;;;;;;;;;38.75;31.25;;;;;-146.59;100.00;59519.28;6128444;23;51065;-46
2022/10/10 00:05:42;;;;;;;;;41.50;31.50;;;;;-146.59;100.00;59519.28;6127874;23;51455;-47
2022/10/10 00:08:27;;;;;;;;;40.00;32.75;;;;;-146.59;100.00;59519.28;6128576;23;51117;-46
2022/10/10 00:11:13;;;;;;;;;38.00;33.00;;;;;-146.59;100.00;59519.28;6128292;23;51018;-44
2022/10/10 00:13:58;;;;;;;;;40.50;31.25;;;;;-146.59;100.00;59519.28;6128429;23;51249;-45
2022/10/10 00:16:43;;;;;;;;;36.50;32.50;;;;;-146.59;100.00;59519.28;6127595;23;51161;-45
2022/10/10 00:19:27;;;;;;;;;38.25;32.75;;;;;-146.59;100.00;59519.28;6128525;23;51020;-45
2022/10/10 00:22:12;;;;;;;;;40.75;33.75;;;;;-146.59;100.00;59519.28;6128488;23;51545;-46
2022/10/10 00:24:56;;;;;;;;;39.25;31.75;;;;;-146.59;100.00;59519.28;6128198;23;51073;-45
2022/10/10 00:27:40;;;;;;;;;31.50;30.50;;;;;-146.59;100.00;59519.28;6127927;23;51049;-45
2022/10/10 00:30:25;;;;;;;;;37.25;32.25;;;;;-146.59;100.00;59519.28;6127975;23;51408;-46
2022/10/10 00:33:10;;;;;;;;;36.25;32.00;;;;;-146.59;100.00;59519.28;6128181;23;51059;-45
2022/10/10 00:35:54;;;;;;;;;40.00;32.25;;;;;-146.59;100.00;59519.28;6126885;23;51100;-46
2022/10/10 00:38:38;;;;;;;;;31.50;24.75;;;;;-146.59;100.00;59519.28;6128208;23;51048;-44
2022/10/10 00:41:25;;;;;;;;;38.00;30.00;;;;;-146.59;100.00;59519.28;6128176;23;51064;-46
2022/10/10 00:44:12;;;;;;;;;33.50;32.00;;;;;-146.59;100.00;59519.28;6126701;23;51012;-46
2022/10/10 00:46:56;;;;;;;;;32.25;29.00;;;;;-146.59;100.00;59519.28;6128475;23;51367;-44
2022/10/10 00:49:42;;;;;;;;;29.25;26.50;;;;;-146.59;100.00;59519.28;6128960;23;51071;-46
2022/10/10 00:52:27;;;;;;;;;27.25;24.00;;;;;-146.59;100.00;59519.28;6129015;23;51044;-45
2022/10/10 00:55:13;;;;;;;;;35.00;25.00;;;;;-146.59;100.00;59519.28;6127661;23;51320;-43
2022/10/10 00:57:57;;;;;;;;;23.50;21.25;;;;;-146.59;100.00;59519.28;6128610;23;51103;-47
2022/10/10 01:00:42;;;;;;;;;31.25;26.75;;;;;-146.59;100.00;59519.28;6128643;23;51024;-45
2022/10/10 01:03:26;;;;;;;;;29.25;21.75;;;;;-146.59;100.00;59519.28;6128334;23;51077;-45
2022/10/10 01:06:11;;;;;;;;;31.75;28.00;;;;;-146.59;100.00;59519.28;6128370;23;51284;-44
2022/10/10 01:08:56;;;;;;;;;30.25;25.75;;;;;-146.59;100.00;59519.28;6127633;23;51037;-45
2022/10/10 01:11:58;;;;;;;;;27.75;23.75;;;;;-146.59;100.00;59519.28;6123416;23;51378;-44
2022/10/10 01:14:51;;;;;;;;;27.75;21.50;;;;;-146.59;100.00;59519.28;6125040;23;51102;-47
2022/10/10 01:18:11;;;;;;;;;24.25;23.00;;;;;-146.59;100.00;59519.28;6127484;23;51156;-45
2022/10/10 01:21:26;;;;;;;;;27.25;23.00;;;;;-146.59;100.00;59519.28;6099864;23;51356;-46
2022/10/10 01:24:56;;;;;;;;;24.00;22.25;;;;;-146.59;100.00;59519.28;6127223;23;51503;-45
2022/10/10 01:27:58;;;;;;;;;19.50;16.25;;;;;-146.59;100.00;59519.28;6127503;23;50973;-45
2022/10/10 01:30:42;;;;;;;;;21.25;19.75;;;;;-146.59;100.00;59519.28;6128296;23;51190;-45
2022/10/10 01:33:31;;;;;;;;;25.00;20.50;;;;;-146.59;100.00;59519.28;6128165;23;51162;-44
2022/10/10 01:36:42;;;;;;;;;25.75;20.25;;;;;-146.59;100.00;59519.28;6128774;23;51049;-46
2022/10/10 01:39:49;;;;;;;;;25.00;21.00;;;;;-146.59;100.00;59519.28;6121550;23;51489;-46
2022/10/10 01:42:44;;;;;;;;;23.00;21.00;;;;;-146.59;100.00;59519.28;6127573;23;51235;-48
2022/10/10 01:45:30;;;;;;;;;24.25;22.75;;;;;-146.59;100.00;59519.28;6128610;23;50973;-46
2022/10/10 01:48:29;;;;;;;;;27.25;22.50;;;;;-146.59;100.00;59519.28;6127812;23;51331;-46
2022/10/10 01:51:47;;;;;;;;;26.50;26.25;;;;;-146.59;100.00;59519.28;6127001;23;51072;-46
2022/10/10 01:54:39;;;;;;;;;24.50;20.25;;;;;-146.59;100.00;59519.28;6127651;23;51310;-46
2022/10/10 01:57:48;;;;;;;;;25.25;23.75;;;;;-146.59;100.00;59519.28;6126807;23;51143;-45
2022/10/10 02:00:44;;;;;;;;;29.50;25.25;;;;;-146.59;100.00;59519.28;6127658;23;51455;-44
2022/10/10 02:03:36;;;;;;;;;25.50;24.00;;;;;-146.59;100.00;59519.28;6126252;23;51114;-46
2022/10/10 02:06:34;;;;;;;;;20.25;18.75;;;;;-146.59;100.00;59519.28;6126857;23;51406;-45
2022/10/10 02:09:22;;;;;;;;;23.75;22.00;;;;;-146.59;100.00;59519.28;6127645;23;51017;-45
2022/10/10 02:12:09;;;;;;;;;24.00;19.75;;;;;-146.59;100.00;59519.28;6129574;23;50961;-46
2022/10/10 02:14:58;;;;;;;;;26.25;22.25;;;;;-146.59;100.00;59519.28;6129716;23;51128;-45
2022/10/10 02:17:44;;;;;;;;;28.50;23.00;;;;;-146.59;100.00;59519.28;6128675;23;51181;-44
2022/10/10 02:20:30;;;;;;;;;28.00;23.00;;;;;-146.59;100.00;59519.28;6128244;23;50962;-46
2022/10/10 02:23:16;;;;;;;;;25.75;22.25;;;;;-146.59;100.00;59519.28;6130421;23;51080;-46
2022/10/10 02:26:02;;;;;;;;;26.75;23.25;;;;;-146.59;100.00;59519.28;6127974;23;51110;-43
2022/10/10 02:28:56;;;;;;;;;28.75;28.50;;;;;-146.59;100.00;59519.28;6129737;23;51025;-46
2022/10/10 02:31:46;;;;;;;;;25.25;21.50;;;;;-146.59;100.00;59519.28;6130585;23;51476;-46
2022/10/10 02:34:45;;;;;;;;;33.00;23.75;;;;;-146.59;100.00;59519.28;6129356;23;51121;-45
2022/10/10 02:37:31;;;;;;;;;30.75;23.25;;;;;-146.59;100.00;59519.28;6130245;23;51196;-47
2022/10/10 02:40:22;;;;;;;;;20.00;18.75;;;;;-146.59;100.00;59519.28;6124179;23;51205;-46
2022/10/10 02:43:07;;;;;;;;;25.75;23.50;;;;;-146.59;100.00;59519.28;6128342;23;50995;-47
2022/10/10 02:45:52;;;;;;;;;30.00;23.50;;;;;-146.59;100.00;59519.28;6128681;23;50985;-45
2022/10/10 02:48:37;;;;;;;;;24.00;21.75;;;;;-146.59;100.00;59519.28;6128915;23;51023;-46
2022/10/10 02:51:22;;;;;;;;;28.50;23.25;;;;;-146.59;100.00;59519.28;6129051;23;51385;-45
2022/10/10 02:54:07;;;;;;;;;25.50;24.75;;;;;-146.59;100.00;59519.28;6127529;23;51050;-45
2022/10/10 02:56:51;;;;;;;;;26.50;24.25;;;;;-146.59;100.00;59519.28;6128450;23;51480;-45
2022/10/10 02:59:36;;;;;;;;;28.50;24.75;;;;;-146.59;100.00;59519.28;6128564;23;51113;-46
2022/10/10 03:02:20;;;;;;;;;31.25;22.75;;;;;-146.59;100.00;59519.28;6129961;23;51005;-47
2022/10/10 03:05:05;;;;;;;;;29.00;23.75;;;;;-146.59;100.00;59519.28;6128939;23;51471;-46
2022/10/10 03:07:49;;;;;;;;;29.50;23.00;;;;;-146.59;100.00;59519.28;6129103;23;51529;-44
2022/10/10 03:10:34;;;;;;;;;27.75;22.75;;;;;-146.59;100.00;59519.28;6128663;23;51149;-45
2022/10/10 03:13:18;;;;;;;;;27.25;24.50;;;;;-146.59;100.00;59519.28;6128989;23;51068;-44
2022/10/10 03:16:05;;;;;;;;;25.50;24.75;;;;;-146.59;100.00;59519.28;6128246;23;51061;-46
2022/10/10 03:18:50;;;;;;;;;29.50;27.00;;;;;-146.59;100.00;59519.28;6127694;23;51051;-45
2022/10/10 03:21:35;;;;;;;;;29.00;25.00;;;;;-146.59;100.00;59519.28;6128708;23;51040;-45
2022/10/10 03:24:20;;;;;;;;;25.75;23.50;;;;;-146.59;100.00;59519.28;6128085;23;51042;-46
2022/10/10 03:27:04;;;;;;;;;31.50;27.25;;;;;-146.59;100.00;59519.28;6129335;23;51076;-46
2022/10/10 03:29:48;;;;;;;;;34.25;29.75;;;;;-146.59;100.00;59519.28;6128583;23;51045;-44
2022/10/10 03:32:33;;;;;;;;;35.50;33.00;;;;;-146.59;100.00;59519.28;6129045;23;51084;-47
2022/10/10 03:35:18;;;;;;;;;36.25;33.00;;;;;-146.59;100.00;59519.28;6128763;23;51254;-44
2022/10/10 03:38:03;;;;;;;;;32.25;30.00;;;;;-146.59;100.00;59519.28;6128851;23;51022;-46
2022/10/10 03:40:48;;;;;;;;;32.75;27.00;;;;;-146.59;100.00;59519.28;6127720;23;51336;-46
2022/10/10 03:43:32;;;;;;;;;34.25;31.75;;;;;-146.59;100.00;59519.28;6128126;23;51017;-46
2022/10/10 03:46:16;;;;;;;;;31.00;26.50;;;;;-146.59;100.00;59519.28;6128824;23;51437;-45
2022/10/10 03:49:00;;;;;;;;;31.50;24.50;;;;;-146.59;100.00;59519.28;6127527;23;51127;-44
2022/10/10 03:51:45;;;;;;;;;31.50;30.00;;;;;-146.59;100.00;59519.28;6127451;23;50969;-45
2022/10/10 03:54:29;;;;;;;;;32.00;24.75;;;;;-146.59;100.00;59519.28;6127193;23;51344;-44
2022/10/10 03:57:14;;;;;;;;;26.00;24.00;;;;;-146.59;100.00;59519.28;6129035;23;51456;-44
2022/10/10 03:59:59;;;;;;;;;31.00;27.25;;;;;-146.59;100.00;59519.28;6128469;23;51125;-46
2022/10/10 04:02:43;;;;;;;;;22.50;19.00;;;;;-146.59;100.00;59519.28;6128619;23;51076;-45
2022/10/10 04:05:28;;;;;;;;;28.00;27.00;;;;;-146.59;100.00;59519.28;6128260;23;51508;-48
2022/10/10 04:08:12;;;;;;;;;29.50;25.00;;;;;-146.59;100.00;59519.28;6127455;23;51074;-45
2022/10/10 04:10:56;;;;;;;;;28.75;26.00;;;;;-146.59;100.00;59519.28;6127528;23;51467;-46
2022/10/10 04:13:41;;;;;;;;;26.00;24.75;;;;;-146.59;100.00;59519.28;6127380;23;51076;-44
2022/10/10 04:16:25;;;;;;;;;34.00;27.25;;;;;-146.59;100.00;59519.28;6128884;23;51046;-45
2022/10/10 04:19:10;;;;;;;;;31.25;28.25;;;;;-146.59;100.00;59519.28;6128081;23;51144;-46
2022/10/10 04:21:54;;;;;;;;;33.75;30.00;;;;;-146.59;100.00;59519.28;6127653;23;51026;-45
2022/10/10 04:24:39;;;;;;;;;34.75;30.00;;;;;-146.59;100.00;59519.28;6127681;23;51340;-45
2022/10/10 04:27:23;;;;;;;;;33.50;31.00;;;;;-146.59;100.00;59519.28;6128716;23;51037;-46
2022/10/10 04:30:09;;;;;;;;;34.00;29.00;;;;;-146.59;100.00;59519.28;6128175;23;51314;-48
2022/10/10 04:32:54;;;;;;;;;41.75;32.75;;;;;-146.59;100.00;59519.28;6127492;23;51016;-44
2022/10/10 04:35:38;;;;;;;;;35.25;30.00;;;;;-146.59;100.00;59519.28;6128400;23;51187;-44
2022/10/10 04:38:23;;;;;;;;;34.50;29.50;;;;;-146.59;100.00;59519.28;6127751;23;51048;-44
2022/10/10 04:41:07;;;;;;;;;31.25;29.25;;;;;-146.59;100.00;59519.28;6129253;23;51096;-45
2022/10/10 04:43:52;;;;;;;;;39.00;31.00;;;;;-146.59;100.00;59519.28;6127662;23;51099;-45
2022/10/10 04:46:36;;;;;;;;;36.25;29.75;;;;;-146.59;100.00;59519.28;6128439;23;51438;-45
2022/10/10 04:49:21;;;;;;;;;37.50;32.75;;;;;-146.59;100.00;59519.28;6127965;23;51094;-45
2022/10/10 04:52:05;;;;;;;;;45.50;35.25;;;;;-146.59;100.00;59519.28;6129157;23;51105;-45
2022/10/10 04:54:50;;;;;;;;;37.75;33.00;;;;;-146.59;100.00;59519.28;6128050;23;51464;-45
2022/10/10 04:57:34;;;;;;;;;39.25;32.75;;;;;-146.59;100.00;59519.28;6128205;23;51044;-45
2022/10/10 05:00:19;;;;;;;;;34.25;30.75;;;;;-146.59;100.00;59519.28;6128873;23;51666;-45
2022/10/10 05:03:04;;;;;;;;;38.75;33.00;;;;;-146.59;100.00;59519.28;6127745;23;51098;-46
2022/10/10 05:05:49;;;;;;;;;56.00;45.25;;;;;-146.59;100.00;59519.28;6128928;23;51100;-46
2022/10/10 05:08:34;;;;;;;;;47.50;37.50;;;;;-146.59;100.00;59519.28;6127646;23;51292;-46
2022/10/10 05:11:18;;;;;;;;;40.75;34.00;;;;;-146.59;100.00;59519.28;6127906;23;51136;-44
2022/10/10 05:14:03;;;;;;;;;46.75;35.00;;;;;-146.59;100.00;59519.28;6127394;23;51114;-46
2022/10/10 05:16:47;;;;;;;;;45.50;38.00;;;;;-146.59;100.00;59519.28;6128930;23;51402;-45
2022/10/10 05:19:32;;;;;;;;;56.25;43.25;;;;;-146.59;100.00;59519.28;6128160;23;51273;-46
2022/10/10 05:22:16;;;;;;;;;54.50;42.75;;;;;-146.59;100.00;59519.28;6127806;23;51097;-45
2022/10/10 05:25:02;;;;;;;;;53.25;42.50;;;;;-146.59;100.00;59519.28;6128457;23;51058;-46
2022/10/10 05:27:46;;;;;;;;;48.75;40.00;;;;;-146.59;100.00;59519.28;6128538;23;51136;-46
2022/10/10 05:30:30;;;;;;;;;51.75;40.25;;;;;-146.59;100.00;59519.28;6127835;23;51112;-46
2022/10/10 05:33:15;;;;;;;;;53.00;43.25;;;;;-146.59;100.00;59519.28;6127859;23;51471;-46
2022/10/10 05:36:11;;;;;;;;;57.75;45.00;;;;;-146.59;100.00;59519.28;6127510;23;51350;-47
2022/10/10 05:38:56;;;;;;;;;57.25;45.25;;;;;-146.59;100.00;59519.28;6123335;23;51164;-47
2022/10/10 05:41:41;;;;;;;;;52.00;42.25;;;;;-146.59;100.00;59519.28;6127611;23;51168;-47
2022/10/10 05:44:26;;;;;;;;;54.25;41.25;;;;;-146.59;100.00;59519.28;6127305;23;51342;-44
2022/10/10 05:47:10;;;;;;;;;53.75;43.00;;;;;-146.59;100.00;59519.28;6129331;23;51073;-48
2022/10/10 05:49:55;;;;;;;;;55.75;42.75;;;;;-146.59;100.00;59519.28;6130403;23;51013;-45
2022/10/10 05:52:39;;;;;;;;;61.75;48.50;;;;;-146.59;100.00;59519.28;6129549;23;51003;-46
2022/10/10 05:55:24;;;;;;;;;63.75;48.00;;;;;-146.59;100.00;59519.28;6130032;23;51087;-45
2022/10/10 05:58:12;;;;;;;;;58.50;45.50;;;;;-146.59;100.00;59519.28;6130281;23;51044;-46
2022/10/10 06:01:02;;;;;;;;;60.50;46.75;;;;;-146.59;100.00;59519.28;6130077;23;51492;-46
2022/10/10 06:03:51;;;;;;;;;57.25;47.25;;;;;-146.59;100.00;59519.28;6129899;23;51212;-46
2022/10/10 06:06:35;;;;;;;;;52.50;44.00;;;;;-146.59;100.00;59519.28;6130054;23;51066;-45
2022/10/10 06:09:20;;;;;;;;;59.50;46.75;;;;;-146.59;100.00;59519.28;6129890;23;51435;-46
2022/10/10 06:12:04;;;;;;;;;56.00;45.50;;;;;-146.59;100.00;59519.28;6129824;23;51024;-45
2022/10/10 06:14:49;;;;;;;;;62.75;49.75;;;;;-146.59;100.00;59519.28;6129673;23;51140;-45
2022/10/10 06:17:33;;;;;;;;;60.75;48.75;;;;;-146.59;100.00;59519.28;6129155;23;51105;-45
2022/10/10 06:20:18;;;;;;;;;61.50;47.00;;;;;-146.59;100.00;59519.28;6130366;23;50980;-46
2022/10/10 06:23:03;;;;;;;;;61.50;47.25;;;;;-146.59;100.00;59519.28;6129565;23;51030;-45
2022/10/10 06:25:51;;;;;;;;;50.50;43.25;;;;;-146.59;100.00;59519.28;6129505;23;51900;-46
2022/10/10 06:28:36;;;;;;;;;53.75;42.75;;;;;-146.59;100.00;59519.28;6128819;23;51148;-46
2022/10/10 06:31:21;;;;;;;;;46.00;37.75;;;;;-146.59;100.00;59519.28;6128660;23;51061;-46
2022/10/10 06:34:06;;;;;;;;;50.75;41.25;;;;;-146.59;100.00;59519.28;6129242;23;51449;-45
2022/10/10 06:36:51;;;;;;;;;26.25;24.50;;;;;-146.59;100.00;59519.28;6129937;23;51139;-46
2022/10/10 06:39:35;;;;;;;;;40.75;34.00;;;;;-146.59;100.00;59519.28;6124379;23;51108;-47
2022/10/10 06:42:20;;;;;;;;;41.25;35.00;;;;;-146.59;100.00;59519.28;6128828;23;50929;-47
2022/10/10 06:45:05;;;;;;;;;43.50;35.25;;;;;-146.59;100.00;59519.28;6129184;23;51100;-47
2022/10/10 06:47:50;;;;;;;;;41.00;35.00;;;;;-146.59;100.00;59519.28;6128363;23;51105;-46
2022/10/10 06:50:35;;;;;;;;;47.75;36.00;;;;;-146.59;100.00;59519.28;6128061;23;51495;-40
2022/10/10 06:53:19;;;;;;;;;45.25;37.00;;;;;-146.59;100.00;59519.28;6129198;23;51044;-42
2022/10/10 06:56:04;;;;;;;;;36.25;31.50;;;;;-146.59;100.00;59519.28;6129283;23;51152;-41
2022/10/10 06:58:49;;;;;;;;;38.75;30.00;;;;;-146.59;100.00;59519.28;6131809;23;50806;-42
2022/10/10 07:01:33;;;;;;;;;48.00;36.25;;;;;-146.59;100.00;59519.28;6127525;23;51033;-42
2022/10/10 07:04:18;;;;;;;;;36.50;31.25;;;;;-146.59;100.00;59519.28;6128477;23;51742;-39
2022/10/10 07:07:02;;;;;;;;;43.50;34.25;;;;;-146.59;100.00;59519.28;6128892;23;51070;-38
2022/10/10 07:09:47;;;;;;;;;47.75;39.75;;;;;-146.59;100.00;59519.28;6127564;23;51100;-39
2022/10/10 07:12:31;;;;;;;;;56.75;44.50;;;;;-146.59;100.00;59519.28;6128799;23;51048;-42
2022/10/10 07:15:16;;;;;;;;;57.50;46.25;;;;;-146.59;100.00;59519.28;6128225;23;51029;-42
2022/10/10 07:18:01;;;;;;;;;55.00;43.75;;;;;-146.59;100.00;59519.28;6128295;23;51022;-42
2022/10/10 07:20:45;;;;;;;;;58.25;46.50;;;;;-146.59;100.00;59519.28;6128932;23;50954;-41
2022/10/10 07:23:31;;;;;;;;;55.25;45.75;;;;;-146.59;100.00;59519.28;6128053;23;51141;-41
2022/10/10 07:26:19;;;;;;;;;55.00;44.25;;;;;-146.59;100.00;59519.28;6128034;23;51078;-38
2022/10/10 07:29:05;;;;;;;;;55.75;44.25;;;;;-146.59;100.00;59519.28;6127333;23;51368;-40
2022/10/10 07:31:51;;;;;;;;;59.00;46.00;;;;;-146.59;100.00;59519.28;6126803;23;51045;-38
2022/10/10 07:34:36;;;;;;;;;58.25;46.00;;;;;-146.59;100.00;59519.28;6129102;23;51113;-40
2022/10/10 07:37:21;;;;;;;;;57.00;45.25;;;;;-146.59;100.00;59519.28;6128891;23;51185;-39
2022/10/10 07:40:07;;;;;;;;;55.00;43.25;;;;;-146.59;100.00;59519.28;6127868;23;51021;-38
2022/10/10 07:42:52;;;;;;;;;46.50;38.50;;;;;-146.59;100.00;59519.28;6128290;23;51432;-40
2022/10/10 07:45:37;;;;;;;;;50.00;41.25;;;;;-146.59;100.00;59519.28;6129295;23;51113;-40
2022/10/10 07:48:21;;;;;;;;;51.75;42.00;;;;;-146.59;100.00;59519.28;6127941;23;51463;-39
2022/10/10 07:51:06;;;;;;;;;52.75;43.00;;;;;-146.59;100.00;59519.28;6127850;23;51135;-38
2022/10/10 07:53:51;;;;;;;;;56.75;42.75;;;;;-146.59;100.00;59519.28;6128696;23;51108;-38
2022/10/10 07:56:36;;;;;;;;;42.00;32.75;;;;;-146.59;100.00;59519.28;6128557;23;51801;-39
2022/10/10 07:59:21;;;;;;;;;42.00;35.25;;;;;-146.59;100.00;59519.28;6128733;23;51097;-39
2022/10/10 08:02:06;;;;;;;;;45.75;36.25;;;;;-146.59;100.00;59519.28;6128839;23;51342;-39
2022/10/10 08:04:50;;;;;;;;;48.50;39.75;;;;;-146.59;100.00;59519.28;6124298;23;52208;-41
2022/10/10 08:07:35;;;;;;;;;37.50;32.00;;;;;-146.59;100.00;59519.28;6127799;23;51046;-39
2022/10/10 08:10:20;;;;;;;;;42.50;32.50;;;;;-146.59;100.00;59519.28;6128350;23;51029;-39
2022/10/10 08:13:08;;;;;;;;;32.50;27.50;;;;;-146.59;100.00;59519.28;6125931;23;51085;-39
2022/10/10 08:15:53;;;;;;;;;30.50;24.75;;;;;-146.59;100.00;59519.28;6127035;23;51208;-40
2022/10/10 08:18:38;;;;;;;;;26.50;26.00;;;;;-146.59;100.00;59519.28;6120926;23;51741;-39
2022/10/10 08:21:22;;;;;;;;;25.75;21.75;;;;;-146.59;100.00;59519.28;6126732;23;51143;-40
2022/10/10 08:24:07;;;;;;;;;25.50;21.25;;;;;-146.59;100.00;59519.28;6128405;23;50968;-39
2022/10/10 08:26:52;;;;;;;;;23.00;20.25;;;;;-146.59;100.00;59519.28;6128298;23;51025;-42
2022/10/10 08:29:36;;;;;;;;;18.25;18.25;;;;;-146.59;100.00;59519.28;6126333;23;51379;-40
2022/10/10 08:32:22;;;;;;;;;16.75;14.50;;;;;-146.59;100.00;59519.28;6127532;23;51133;-42
2022/10/10 08:35:06;;;;;;;;;14.50;13.25;;;;;-146.59;100.00;59519.28;6106083;23;51039;-40
2022/10/10 08:37:51;;;;;;;;;12.25;11.00;;;;;-146.59;100.00;59519.28;6127767;23;51116;-39
2022/10/10 08:40:46;;;;;;;;;7.25;7.25;;;;;-146.59;100.00;59519.28;6127684;23;51053;-39
2022/10/10 08:43:41;;;;;;;;;17.50;12.50;;;;;-146.59;100.00;59519.28;6125236;23;51355;-42
2022/10/10 08:46:35;;;;;;;;;13.75;11.50;;;;;-146.59;100.00;59519.28;6127375;23;51151;-41
2022/10/10 08:49:24;;;;;;;;;11.25;8.50;;;;;-146.59;100.00;59519.28;6127833;23;51041;-40
2022/10/10 08:52:40;;;;;;;;;21.50;13.25;;;;;-146.59;100.00;59519.28;6128128;23;51040;-41
2022/10/10 08:55:32;;;;;;;;;15.75;11.25;;;;;-146.59;100.00;59519.28;6128184;23;51699;-40
2022/10/10 08:58:28;;;;;;;;;9.00;8.50;;;;;-146.59;100.00;59519.28;6126227;23;51119;-41
2022/10/10 09:01:28;;;;;;;;;17.00;13.50;;;;;-146.59;100.00;59519.28;6115317;23;51183;-42
2022/10/10 09:04:17;;;;;;;;;11.50;9.25;;;;;-146.59;100.00;59519.28;6125376;23;51065;-39
2022/10/10 09:07:23;;;;;;;;;12.25;9.50;;;;;-146.59;100.00;59519.28;6123585;23;51203;-38
2022/10/10 09:10:17;;;;;;;;;11.00;9.50;;;;;-146.59;100.00;59519.28;6124712;23;51091;-40
2022/10/10 09:13:08;;;;;;;;;11.75;10.25;;;;;-146.59;100.00;59519.28;6126582;23;51013;-40
2022/10/10 09:16:19;;;;;;;;;11.75;10.50;;;;;-146.59;100.00;59519.28;6125814;23;51347;-39
2022/10/10 09:19:23;;;;;;;;;11.75;9.50;;;;;-146.59;100.00;59519.28;6128186;23;51301;-40
2022/10/10 09:22:15;;;;;;;;;10.00;8.75;;;;;-146.59;100.00;59519.28;6129731;23;51408;-39
2022/10/10 09:25:06;;;;;;;;;11.00;7.50;;;;;-146.59;100.00;59519.28;6128039;23;51143;-40
2022/10/10 09:28:00;;;;;;;;;13.50;9.50;;;;;-146.59;100.00;59519.28;6128334;23;51046;-42
2022/10/10 09:30:53;;;;;;;;;8.75;7.25;;;;;-146.59;100.00;59519.28;6129756;23;51027;-40
2022/10/10 09:33:43;;;;;;;;;11.00;9.75;;;;;-146.59;100.00;59519.28;6129450;23;51035;-39
2022/10/10 09:36:33;;;;;;;;;15.50;10.75;;;;;-146.59;100.00;59519.28;6130357;23;51322;-39
2022/10/10 09:39:39;;;;;;;;;12.50;10.25;;;;;-146.59;100.00;59519.28;6128240;23;50987;-41
2022/10/10 09:42:49;;;;;;;;;13.50;11.75;;;;;-146.59;100.00;59519.28;6129861;23;51282;-39
2022/10/10 09:45:41;;;;;;;;;17.50;15.25;;;;;-146.59;100.00;59519.28;6129564;23;51086;-40
2022/10/10 09:48:29;;;;;;;;;13.50;13.25;;;;;-146.59;100.00;59519.28;6128651;23;51136;-39
2022/10/10 09:51:16;;;;;;;;;10.75;10.75;;;;;-146.59;100.00;59519.28;6126983;23;51224;-39
2022/10/10 09:54:01;;;;;;;;;13.25;11.25;;;;;-146.59;100.00;59519.28;6129412;23;51137;-40
2022/10/10 09:56:53;;;;;;;;;13.25;11.75;;;;;-146.59;100.00;59519.28;6128359;23;51392;-39
2022/10/10 09:59:46;;;;;;;;;15.50;13.75;;;;;-146.59;100.00;59519.28;6126346;23;51190;-40
2022/10/10 10:02:31;;;;;;;;;14.25;11.75;;;;;-146.59;100.00;59519.28;6129214;23;51454;-41
2022/10/10 10:05:26;;;;;;;;;10.75;10.25;;;;;-146.59;100.00;59519.28;6129361;23;50981;-42
2022/10/10 10:08:29;;;;;;;;;10.50;9.00;;;;;-146.59;100.00;59519.28;6128693;23;51049;-40
2022/10/10 10:11:28;;;;;;;;;15.25;13.50;;;;;-146.59;100.00;59519.28;6129749;23;51051;-41
2022/10/10 10:14:24;;;;;;;;;14.25;14.25;;;;;-146.59;100.00;59519.28;6127140;23;51071;-41
2022/10/10 10:17:15;;;;;;;;;17.50;14.50;;;;;-146.59;100.00;59519.28;6128045;23;51117;-40
2022/10/10 10:19:59;;;;;;;;;13.50;13.50;;;;;-146.59;100.00;59519.28;6127976;23;51322;-40
2022/10/10 10:22:46;;;;;;;;;20.50;11.25;;;;;-146.59;100.00;59519.28;6129516;23;51482;-42
2022/10/10 10:25:33;;;;;;;;;16.25;13.75;;;;;-146.59;100.00;59519.28;6129471;23;51148;-40
2022/10/10 10:28:20;;;;;;;;;15.25;14.00;;;;;-146.59;100.00;59519.28;6128949;23;51248;-41
2022/10/10 10:31:10;;;;;;;;;11.75;10.75;;;;;-146.59;100.00;59519.28;6129043;23;51032;-42
2022/10/10 10:34:12;;;;;;;;;17.00;12.00;;;;;-146.59;100.00;59519.28;6127670;23;51298;-41
2022/10/10 10:37:22;;;;;;;;;12.75;11.25;;;;;-146.59;100.00;59519.28;6128651;23;51144;-41
2022/10/10 10:40:27;;;;;;;;;9.75;8.25;;;;;-146.59;100.00;59519.28;6128826;23;51456;-41
2022/10/10 10:43:22;;;;;;;;;9.75;9.00;;;;;-146.59;100.00;59519.28;6129873;23;51033;-41
2022/10/10 10:46:35;;;;;;;;;14.50;11.75;;;;;-146.59;100.00;59519.28;6129215;23;51085;-40
2022/10/10 10:49:47;;;;;;;;;16.25;14.25;;;;;-146.59;100.00;59519.28;6129890;23;51376;-41
2022/10/10 10:52:58;;;;;;;;;11.25;11.25;;;;;-146.59;100.00;59519.28;6124445;23;51200;-39
2022/10/10 10:56:07;;;;;;;;;12.25;10.50;;;;;-146.59;100.00;59519.28;6125481;23;51117;-40
2022/10/10 10:59:09;;;;;;;;;17.50;13.75;;;;;-146.59;100.00;59519.28;6127216;23;51147;-41
2022/10/10 11:02:19;;;;;;;;;12.25;12.25;;;;;-146.59;100.00;59519.28;6127320;23;51163;-40
2022/10/10 11:05:21;;;;;;;;;14.75;11.75;;;;;-146.59;100.00;59519.28;6125658;23;51088;-40
2022/10/10 11:08:28;;;;;;;;;14.00;13.25;;;;;-146.59;100.00;59519.28;6125605;23;51405;-40
2022/10/10 11:11:52;;;;;;;;;11.75;10.50;;;;;-146.59;100.00;59519.28;6124673;23;51432;-42
2022/10/10 11:15:09;;;;;;;;;12.00;10.75;;;;;-146.59;100.00;59519.28;6128566;23;51079;-41
2022/10/10 11:18:04;;;;;;;;;16.00;12.25;;;;;-146.59;100.00;59519.28;6040873;23;51510;-40
2022/10/10 11:20:52;;;;;;;;;14.75;13.75;;;;;-146.59;100.00;59519.28;6127539;23;51221;-41
2022/10/10 11:23:42;;;;;;;;;12.00;10.00;;;;;-146.59;100.00;59519.28;6126504;23;51147;-40
2022/10/10 11:26:41;;;;;;;;;11.00;9.25;;;;;-146.59;100.00;59519.28;6129092;23;51379;-41
2022/10/10 11:29:45;;;;;;;;;8.50;8.50;;;;;-146.59;100.00;59519.28;6127892;23;51069;-40
2022/10/10 11:32:39;;;;;;;;;12.50;10.50;;;;;-146.59;100.00;59519.28;6128827;23;51103;-42
2022/10/10 11:35:34;;;;;;;;;10.75;9.25;;;;;-146.59;100.00;59519.28;6127349;23;51708;-40
2022/10/10 11:38:50;;;;;;;;;13.00;11.75;;;;;-146.59;100.00;59519.28;6126619;23;51091;-40
2022/10/10 11:41:39;;;;;;;;;11.50;11.25;;;;;-146.59;100.00;59519.28;6127319;23;51138;-41
2022/10/10 11:44:45;;;;;;;;;11.50;11.50;;;;;-146.59;100.00;59519.28;6127625;23;51388;-39
2022/10/10 11:47:44;;;;;;;;;14.00;12.00;;;;;-146.59;100.00;59519.28;6123669;23;51488;-41
2022/10/10 11:50:31;;;;;;;;;12.75;9.25;;;;;-146.59;100.00;59519.28;6127493;23;51235;-39
2022/10/10 11:53:36;;;;;;;;;13.25;11.75;;;;;-146.59;100.00;59519.28;6127889;23;51173;-41
2022/10/10 11:56:34;;;;;;;;;12.25;11.75;;;;;-146.59;100.00;59519.28;6127620;23;51458;-40
2022/10/10 11:59:30;;;;;;;;;14.75;11.75;;;;;-146.59;100.00;59519.28;6127185;23;51129;-40
2022/10/10 12:02:20;;;;;;;;;11.25;11.25;;;;;-146.59;100.00;59519.28;6106197;23;51386;-41
2022/10/10 12:05:06;;;;;;;;;13.25;11.25;;;;;-146.59;100.00;59519.28;6127964;23;51107;-39
2022/10/10 12:07:56;;;;;;;;;15.50;10.25;;;;;-146.59;100.00;59519.28;6128635;23;51069;-41
2022/10/10 12:10:51;;;;;;;;;10.50;10.50;;;;;-146.59;100.00;59519.28;6126073;23;51384;-40
2022/10/10 12:13:40;;;;;;;;;9.75;9.75;;;;;-146.59;100.00;59519.28;6128207;23;51219;-40
2022/10/10 12:16:29;;;;;;;;;13.00;10.25;;;;;-146.59;100.00;59519.28;6128238;23;50974;-40
2022/10/10 12:19:19;;;;;;;;;13.00;12.00;;;;;-146.59;100.00;59519.28;6127133;23;51166;-40
2022/10/10 12:22:07;;;;;;;;;8.50;8.50;;;;;-146.59;100.00;59519.28;6127455;23;51472;-41
2022/10/10 12:25:19;;;;;;;;;8.50;8.50;;;;;-146.59;100.00;59519.28;6128339;23;50994;-40
2022/10/10 12:28:22;;;;;;;;;13.50;9.75;;;;;-146.59;100.00;59519.28;6125315;23;51355;-40
2022/10/10 12:31:06;;;;;;;;;13.25;11.00;;;;;-146.59;100.00;59519.28;6125684;23;51332;-39
2022/10/10 12:33:57;;;;;;;;;14.00;12.00;;;;;-146.59;100.00;59519.28;6127464;23;51073;-39